sensor_id;sensor_type;location;lat;lon;timestamp;pressure;altitude;pressure_sealevel;temperature;humidity
12763;BME280;6445;52.490;13.378;2022-08-19T00:01:47;52276.03;;;-146.10;69.90
12763;BME280;6445;52.490;13.378;2022-08-19T00:04:15;52284.03;;;-146.10;71.31
12763;BME280;6445;52.490;13.378;2022-08-19T00:06:42;52284.03;;;-146.10;72.10
12763;BME280;6445;52.490;13.378;2022-08-19T00:09:11;52268.03;;;-146.10;72.22
12763;BME280;6445;52.490;13.378;2022-08-19T00:11:38;52266.03;;;-146.10;71.93
12763;BME280;6445;52.490;13.378;2022-08-19T00:14:05;52286.03;;;-146.10;71.14
12763;BME280;6445;52.490;13.378;2022-08-19T00:16:31;52284.03;;;-146.10;71.26
12763;BME280;6445;52.490;13.378;2022-08-19T00:18:57;52266.03;;;-146.10;71.65
12763;BME280;6445;52.490;13.378;2022-08-19T00:21:23;52292.06;;;-146.10;71.59
12763;BME280;6445;52.490;13.378;2022-08-19T00:23:49;52296.06;;;-146.10;70.92
12763;BME280;6445;52.490;13.378;2022-08-19T00:26:14;52270.03;;;-146.10;71.21
12763;BME280;6445;52.490;13.378;2022-08-19T00:28:40;52264.03;;;-146.10;72.71
12763;BME280;6445;52.490;13.378;2022-08-19T00:31:07;52258.03;;;-146.10;73.90
12763;BME280;6445;52.490;13.378;2022-08-19T00:33:33;52266.03;;;-146.10;73.56
12763;BME280;6445;52.490;13.378;2022-08-19T00:36:04;52270.03;;;-146.10;70.91
12763;BME280;6445;52.490;13.378;2022-08-19T00:38:31;52306.06;;;-146.10;69.71
12763;BME280;6445;52.490;13.378;2022-08-19T00:40:56;52268.03;;;-146.10;71.73
12763;BME280;6445;52.490;13.378;2022-08-19T00:43:24;52248.03;;;-146.10;73.45
12763;BME280;6445;52.490;13.378;2022-08-19T00:45:50;52294.06;;;-146.10;73.01
12763;BME280;6445;52.490;13.378;2022-08-19T00:48:17;52260.03;;;-146.10;72.25
12763;BME280;6445;52.490;13.378;2022-08-19T00:50:44;52240.03;;;-146.10;72.53
12763;BME280;6445;52.490;13.378;2022-08-19T00:53:12;52278.03;;;-146.10;71.86
12763;BME280;6445;52.490;13.378;2022-08-19T00:55:40;52274.03;;;-146.10;72.63
12763;BME280;6445;52.490;13.378;2022-08-19T00:58:11;52286.03;;;-146.10;72.40
12763;BME280;6445;52.490;13.378;2022-08-19T01:00:37;52288.06;;;-146.10;72.31
12763;BME280;6445;52.490;13.378;2022-08-19T01:03:12;52284.03;;;-146.10;73.21
12763;BME280;6445;52.490;13.378;2022-08-19T01:05:39;52252.03;;;-146.10;74.64
12763;BME280;6445;52.490;13.378;2022-08-19T01:08:06;52262.03;;;-146.10;73.77
12763;BME280;6445;52.490;13.378;2022-08-19T01:10:33;52252.03;;;-146.10;74.33
12763;BME280;6445;52.490;13.378;2022-08-19T01:13:02;52240.03;;;-146.10;75.26
12763;BME280;6445;52.490;13.378;2022-08-19T01:15:34;52256.03;;;-146.10;75.74
12763;BME280;6445;52.490;13.378;2022-08-19T01:18:08;52282.03;;;-146.10;75.64
12763;BME280;6445;52.490;13.378;2022-08-19T01:20:34;52272.03;;;-146.10;75.50
12763;BME280;6445;52.490;13.378;2022-08-19T01:23:00;52272.03;;;-146.10;76.10
12763;BME280;6445;52.490;13.378;2022-08-19T01:25:40;52262.03;;;-146.10;75.75
12763;BME280;6445;52.490;13.378;2022-08-19T01:28:07;52268.03;;;-146.10;76.48
12763;BME280;6445;52.490;13.378;2022-08-19T01:30:34;52258.03;;;-146.10;77.30
12763;BME280;6445;52.490;13.378;2022-08-19T01:33:01;52252.03;;;-146.10;78.02
12763;BME280;6445;52.490;13.378;2022-08-19T01:35:28;52262.03;;;-146.10;78.54
12763;BME280;6445;52.490;13.378;2022-08-19T01:38:00;52232.03;;;-146.10;78.44
12763;BME280;6445;52.490;13.378;2022-08-19T01:40:31;52248.03;;;-146.10;78.31
12763;BME280;6445;52.490;13.378;2022-08-19T01:42:58;52262.03;;;-146.10;77.70
12763;BME280;6445;52.490;13.378;2022-08-19T01:45:26;52244.03;;;-146.10;78.58
12763;BME280;6445;52.490;13.378;2022-08-19T01:47:53;52238.03;;;-146.10;79.59
12763;BME280;6445;52.490;13.378;2022-08-19T01:50:19;52238.03;;;-146.10;79.69
12763;BME280;6445;52.490;13.378;2022-08-19T01:52:45;52242.03;;;-146.10;80.08
12763;BME280;6445;52.490;13.378;2022-08-19T01:55:16;52250.03;;;-146.10;80.20
12763;BME280;6445;52.490;13.378;2022-08-19T01:57:48;52234.03;;;-146.10;80.24
12763;BME280;6445;52.490;13.378;2022-08-19T02:00:18;52248.03;;;-146.10;80.12
12763;BME280;6445;52.490;13.378;2022-08-19T02:02:44;52222.03;;;-146.10;79.73
12763;BME280;6445;52.490;13.378;2022-08-19T02:05:11;52232.03;;;-146.10;79.61
12763;BME280;6445;52.490;13.378;2022-08-19T02:07:38;52298.06;;;-146.10;78.05
12763;BME280;6445;52.490;13.378;2022-08-19T02:10:07;52246.03;;;-146.10;77.64
12763;BME280;6445;52.490;13.378;2022-08-19T02:12:33;52280.03;;;-146.10;74.78
12763;BME280;6445;52.490;13.378;2022-08-19T02:14:58;52246.03;;;-146.10;75.42
12763;BME280;6445;52.490;13.378;2022-08-19T02:17:24;52256.03;;;-146.10;76.89
12763;BME280;6445;52.490;13.378;2022-08-19T02:19:49;52264.03;;;-146.10;77.21
12763;BME280;6445;52.490;13.378;2022-08-19T02:22:15;52230.03;;;-146.10;78.62
12763;BME280;6445;52.490;13.378;2022-08-19T02:24:40;52240.03;;;-146.10;79.84
12763;BME280;6445;52.490;13.378;2022-08-19T02:27:05;52222.03;;;-146.10;80.41
12763;BME280;6445;52.490;13.378;2022-08-19T02:29:30;52212.03;;;-146.10;80.32
12763;BME280;6445;52.490;13.378;2022-08-19T02:31:56;52212.03;;;-146.10;80.49
12763;BME280;6445;52.490;13.378;2022-08-19T02:34:21;52210.03;;;-146.10;81.29
12763;BME280;6445;52.490;13.378;2022-08-19T02:36:46;52236.03;;;-146.10;81.48
12763;BME280;6445;52.490;13.378;2022-08-19T02:39:11;52218.03;;;-146.10;81.51
12763;BME280;6445;52.490;13.378;2022-08-19T02:41:37;52226.03;;;-146.10;81.31
12763;BME280;6445;52.490;13.378;2022-08-19T02:44:03;52224.03;;;-146.10;81.03
12763;BME280;6445;52.490;13.378;2022-08-19T02:46:31;52224.03;;;-146.10;81.25
12763;BME280;6445;52.490;13.378;2022-08-19T02:48:59;52234.03;;;-146.10;80.75
12763;BME280;6445;52.490;13.378;2022-08-19T02:51:28;52250.03;;;-146.10;80.37
12763;BME280;6445;52.490;13.378;2022-08-19T02:53:54;52218.03;;;-146.10;80.33
12763;BME280;6445;52.490;13.378;2022-08-19T02:56:19;52218.03;;;-146.10;80.74
12763;BME280;6445;52.490;13.378;2022-08-19T02:58:45;52232.03;;;-146.10;80.81
12763;BME280;6445;52.490;13.378;2022-08-19T03:01:20;52222.03;;;-146.10;81.47
12763;BME280;6445;52.490;13.378;2022-08-19T03:03:45;52244.03;;;-146.10;81.13
12763;BME280;6445;52.490;13.378;2022-08-19T03:06:14;52198.03;;;-146.10;81.55
12763;BME280;6445;52.490;13.378;2022-08-19T03:08:42;52216.03;;;-146.10;81.88
12763;BME280;6445;52.490;13.378;2022-08-19T03:11:16;52216.03;;;-146.10;82.21
12763;BME280;6445;52.490;13.378;2022-08-19T03:13:42;52222.03;;;-146.10;81.90
12763;BME280;6445;52.490;13.378;2022-08-19T03:16:08;52192.03;;;-146.10;82.22
12763;BME280;6445;52.490;13.378;2022-08-19T03:18:34;52212.03;;;-146.10;82.23
12763;BME280;6445;52.490;13.378;2022-08-19T03:20:59;52224.03;;;-146.10;82.66
12763;BME280;6445;52.490;13.378;2022-08-19T03:23:25;52206.03;;;-146.10;82.31
12763;BME280;6445;52.490;13.378;2022-08-19T03:25:52;52230.03;;;-146.10;81.82
12763;BME280;6445;52.490;13.378;2022-08-19T03:28:19;52240.03;;;-146.10;81.60
12763;BME280;6445;52.490;13.378;2022-08-19T03:31:01;52218.03;;;-146.10;81.71
12763;BME280;6445;52.490;13.378;2022-08-19T03:33:28;52236.03;;;-146.10;81.86
12763;BME280;6445;52.490;13.378;2022-08-19T03:36:06;52206.03;;;-146.10;81.89
12763;BME280;6445;52.490;13.378;2022-08-19T03:38:38;52206.03;;;-146.10;81.67
12763;BME280;6445;52.490;13.378;2022-08-19T03:41:09;52230.03;;;-146.10;81.51
12763;BME280;6445;52.490;13.378;2022-08-19T03:43:36;52226.03;;;-146.10;81.81
12763;BME280;6445;52.490;13.378;2022-08-19T03:46:04;52224.03;;;-146.10;81.94
12763;BME280;6445;52.490;13.378;2022-08-19T03:48:31;52224.03;;;-146.10;82.00
12763;BME280;6445;52.490;13.378;2022-08-19T03:50:56;52234.03;;;-146.10;81.97
12763;BME280;6445;52.490;13.378;2022-08-19T03:53:23;52224.03;;;-146.10;82.23
12763;BME280;6445;52.490;13.378;2022-08-19T03:55:48;52212.03;;;-146.10;81.98
12763;BME280;6445;52.490;13.378;2022-08-19T03:58:13;52234.03;;;-146.10;82.13
12763;BME280;6445;52.490;13.378;2022-08-19T04:00:42;52222.03;;;-146.10;81.92
12763;BME280;6445;52.490;13.378;2022-08-19T04:03:07;52240.03;;;-146.10;81.23
12763;BME280;6445;52.490;13.378;2022-08-19T04:05:33;52226.03;;;-146.10;81.43
12763;BME280;6445;52.490;13.378;2022-08-19T04:07:58;52236.03;;;-146.10;81.10
12763;BME280;6445;52.490;13.378;2022-08-19T04:10:24;52234.03;;;-146.10;81.33
12763;BME280;6445;52.490;13.378;2022-08-19T04:12:49;52252.03;;;-146.10;80.98
12763;BME280;6445;52.490;13.378;2022-08-19T04:15:15;52240.03;;;-146.10;81.03
12763;BME280;6445;52.490;13.378;2022-08-19T04:17:40;52242.03;;;-146.10;80.65
12763;BME280;6445;52.490;13.378;2022-08-19T04:20:05;52220.03;;;-146.10;81.44
12763;BME280;6445;52.490;13.378;2022-08-19T04:22:31;52214.03;;;-146.10;81.38
12763;BME280;6445;52.490;13.378;2022-08-19T04:24:56;52226.03;;;-146.10;81.19
12763;BME280;6445;52.490;13.378;2022-08-19T04:27:21;52244.03;;;-146.10;81.26
12763;BME280;6445;52.490;13.378;2022-08-19T04:29:46;52238.03;;;-146.10;81.02
12763;BME280;6445;52.490;13.378;2022-08-19T04:32:12;52248.03;;;-146.10;80.41
12763;BME280;6445;52.490;13.378;2022-08-19T04:34:40;52234.03;;;-146.10;80.47
12763;BME280;6445;52.490;13.378;2022-08-19T04:37:05;52248.03;;;-146.10;80.08
12763;BME280;6445;52.490;13.378;2022-08-19T04:39:38;52232.03;;;-146.10;79.22
12763;BME280;6445;52.490;13.378;2022-08-19T04:42:22;52258.03;;;-146.10;78.72
12763;BME280;6445;52.490;13.378;2022-08-19T04:45:06;52218.03;;;-146.10;78.61
12763;BME280;6445;52.490;13.378;2022-08-19T04:47:31;52260.03;;;-146.10;78.07
12763;BME280;6445;52.490;13.378;2022-08-19T04:49:57;52260.03;;;-146.10;78.26
12763;BME280;6445;52.490;13.378;2022-08-19T04:52:22;52284.03;;;-146.10;77.88
12763;BME280;6445;52.490;13.378;2022-08-19T04:54:47;52254.03;;;-146.10;77.27
12763;BME280;6445;52.490;13.378;2022-08-19T04:57:13;52282.03;;;-146.10;76.86
12763;BME280;6445;52.490;13.378;2022-08-19T04:59:38;52302.06;;;-146.10;76.07
12763;BME280;6445;52.490;13.378;2022-08-19T05:02:06;52280.03;;;-146.10;75.02
12763;BME280;6445;52.490;13.378;2022-08-19T05:04:31;52282.03;;;-146.10;74.24
12763;BME280;6445;52.490;13.378;2022-08-19T05:06:57;52312.06;;;-146.10;73.96
12763;BME280;6445;52.490;13.378;2022-08-19T05:09:23;52278.03;;;-146.10;73.76
12763;BME280;6445;52.490;13.378;2022-08-19T05:11:48;52306.06;;;-146.10;72.96
12763;BME280;6445;52.490;13.378;2022-08-19T05:14:14;52322.06;;;-146.10;72.32
12763;BME280;6445;52.490;13.378;2022-08-19T05:16:40;52320.06;;;-146.10;71.74
12763;BME280;6445;52.490;13.378;2022-08-19T05:19:05;52390.09;;;-146.10;70.39
12763;BME280;6445;52.490;13.378;2022-08-19T05:21:49;52424.09;;;-146.10;66.84
12763;BME280;6445;52.490;13.378;2022-08-19T05:24:33;52408.09;;;-146.10;64.60
12763;BME280;6445;52.490;13.378;2022-08-19T05:27:01;52458.09;;;-146.10;62.47
12763;BME280;6445;52.490;13.378;2022-08-19T05:29:29;52516.13;;;-146.10;61.44
12763;BME280;6445;52.490;13.378;2022-08-19T05:31:55;52442.09;;;-146.10;61.87
12763;BME280;6445;52.490;13.378;2022-08-19T05:34:22;52480.13;;;-146.10;60.92
12763;BME280;6445;52.490;13.378;2022-08-19T05:36:52;52484.13;;;-146.10;60.81
12763;BME280;6445;52.490;13.378;2022-08-19T05:39:21;52474.13;;;-146.10;60.22
12763;BME280;6445;52.490;13.378;2022-08-19T05:41:50;52458.09;;;-146.10;60.45
12763;BME280;6445;52.490;13.378;2022-08-19T05:44:17;52468.09;;;-146.10;61.00
12763;BME280;6445;52.490;13.378;2022-08-19T05:46:44;52434.09;;;-146.10;61.97
12763;BME280;6445;52.490;13.378;2022-08-19T05:49:13;52410.09;;;-146.10;63.73
12763;BME280;6445;52.490;13.378;2022-08-19T05:51:38;52388.09;;;-146.10;65.99
12763;BME280;6445;52.490;13.378;2022-08-19T05:54:05;52356.06;;;-146.10;66.20
12763;BME280;6445;52.490;13.378;2022-08-19T05:56:31;52384.09;;;-146.10;66.13
12763;BME280;6445;52.490;13.378;2022-08-19T05:58:57;52362.06;;;-146.10;67.07
12763;BME280;6445;52.490;13.378;2022-08-19T06:01:24;52356.06;;;-146.10;66.81
12763;BME280;6445;52.490;13.378;2022-08-19T06:03:49;52346.06;;;-146.10;67.25
12763;BME280;6445;52.490;13.378;2022-08-19T06:06:15;52402.09;;;-146.10;67.46
12763;BME280;6445;52.490;13.378;2022-08-19T06:08:41;52370.06;;;-146.10;67.38
12763;BME280;6445;52.490;13.378;2022-08-19T06:11:16;52366.06;;;-146.10;67.74
12763;BME280;6445;52.490;13.378;2022-08-19T06:13:42;52372.06;;;-146.10;68.16
12763;BME280;6445;52.490;13.378;2022-08-19T06:16:08;52364.06;;;-146.10;67.25
12763;BME280;6445;52.490;13.378;2022-08-19T06:18:33;52370.06;;;-146.10;67.22
12763;BME280;6445;52.490;13.378;2022-08-19T06:20:59;52388.09;;;-146.10;66.88
12763;BME280;6445;52.490;13.378;2022-08-19T06:23:25;52390.09;;;-146.10;66.31
12763;BME280;6445;52.490;13.378;2022-08-19T06:25:50;52374.06;;;-146.10;66.52
12763;BME280;6445;52.490;13.378;2022-08-19T06:28:16;52404.09;;;-146.10;65.53
12763;BME280;6445;52.490;13.378;2022-08-19T06:30:41;52420.09;;;-146.10;66.37
12763;BME280;6445;52.490;13.378;2022-08-19T06:33:06;52394.09;;;-146.10;65.95
12763;BME280;6445;52.490;13.378;2022-08-19T06:35:31;52412.09;;;-146.10;64.81
12763;BME280;6445;52.490;13.378;2022-08-19T06:37:57;52442.09;;;-146.10;63.90
12763;BME280;6445;52.490;13.378;2022-08-19T06:40:22;52404.09;;;-146.10;63.95
12763;BME280;6445;52.490;13.378;2022-08-19T06:42:47;52418.09;;;-146.10;64.58
12763;BME280;6445;52.490;13.378;2022-08-19T06:45:13;52398.09;;;-146.10;63.93
12763;BME280;6445;52.490;13.378;2022-08-19T06:47:39;52390.09;;;-146.10;65.14
12763;BME280;6445;52.490;13.378;2022-08-19T06:50:05;52386.09;;;-146.10;65.70
12763;BME280;6445;52.490;13.378;2022-08-19T06:52:32;52394.09;;;-146.10;65.13
12763;BME280;6445;52.490;13.378;2022-08-19T06:54:58;52402.09;;;-146.10;64.82
12763;BME280;6445;52.490;13.378;2022-08-19T06:57:24;52400.09;;;-146.10;65.40
12763;BME280;6445;52.490;13.378;2022-08-19T06:59:50;52384.09;;;-146.10;65.58
12763;BME280;6445;52.490;13.378;2022-08-19T07:02:15;52414.09;;;-146.10;64.89
12763;BME280;6445;52.490;13.378;2022-08-19T07:04:40;52410.09;;;-146.10;64.02
12763;BME280;6445;52.490;13.378;2022-08-19T07:07:09;52432.09;;;-146.10;63.80
12763;BME280;6445;52.490;13.378;2022-08-19T07:09:36;52414.09;;;-146.10;63.44
12763;BME280;6445;52.490;13.378;2022-08-19T07:12:04;52424.09;;;-146.10;63.46
12763;BME280;6445;52.490;13.378;2022-08-19T07:14:31;52418.09;;;-146.10;64.08
12763;BME280;6445;52.490;13.378;2022-08-19T07:16:57;52418.09;;;-146.10;64.04
12763;BME280;6445;52.490;13.378;2022-08-19T07:19:24;52428.09;;;-146.10;63.89
12763;BME280;6445;52.490;13.378;2022-08-19T07:21:53;52420.09;;;-146.10;62.70
12763;BME280;6445;52.490;13.378;2022-08-19T07:24:20;52454.09;;;-146.10;63.02
12763;BME280;6445;52.490;13.378;2022-08-19T07:26:46;52468.09;;;-146.10;61.82
12763;BME280;6445;52.490;13.378;2022-08-19T07:29:12;52460.09;;;-146.10;62.33
12763;BME280;6445;52.490;13.378;2022-08-19T07:31:37;52432.09;;;-146.10;63.04
12763;BME280;6445;52.490;13.378;2022-08-19T07:34:05;52462.09;;;-146.10;63.23
12763;BME280;6445;52.490;13.378;2022-08-19T07:36:33;52428.09;;;-146.10;62.42
12763;BME280;6445;52.490;13.378;2022-08-19T07:39:00;52420.09;;;-146.10;61.74
12763;BME280;6445;52.490;13.378;2022-08-19T07:41:28;52504.13;;;-146.10;60.99
12763;BME280;6445;52.490;13.378;2022-08-19T07:43:58;52464.09;;;-146.10;61.48
12763;BME280;6445;52.490;13.378;2022-08-19T07:46:23;52450.09;;;-146.10;61.63
12763;BME280;6445;52.490;13.378;2022-08-19T07:48:49;52458.09;;;-146.10;62.00
12763;BME280;6445;52.490;13.378;2022-08-19T07:51:20;52440.09;;;-146.10;62.42
12763;BME280;6445;52.490;13.378;2022-08-19T07:53:46;52454.09;;;-146.10;61.96
12763;BME280;6445;52.490;13.378;2022-08-19T07:56:13;52452.09;;;-146.10;61.77
12763;BME280;6445;52.490;13.378;2022-08-19T07:58:40;52440.09;;;-146.10;61.90
12763;BME280;6445;52.490;13.378;2022-08-19T08:01:09;52468.09;;;-146.10;61.29
12763;BME280;6445;52.490;13.378;2022-08-19T08:03:36;52502.13;;;-146.10;60.32
12763;BME280;6445;52.490;13.378;2022-08-19T08:06:20;52500.13;;;-146.10;59.48
12763;BME280;6445;52.490;13.378;2022-08-19T08:09:05;52462.09;;;-146.10;60.45
12763;BME280;6445;52.490;13.378;2022-08-19T08:11:39;52478.13;;;-146.10;60.48
12763;BME280;6445;52.490;13.378;2022-08-19T08:14:06;52482.13;;;-146.10;60.41
12763;BME280;6445;52.490;13.378;2022-08-19T08:16:36;52532.13;;;-146.10;60.25
12763;BME280;6445;52.490;13.378;2022-08-19T08:19:04;52444.09;;;-146.10;62.27
12763;BME280;6445;52.490;13.378;2022-08-19T08:21:30;52436.09;;;-146.10;61.82
12763;BME280;6445;52.490;13.378;2022-08-19T08:23:55;52452.09;;;-146.10;61.91
12763;BME280;6445;52.490;13.378;2022-08-19T08:26:21;52440.09;;;-146.10;62.40
12763;BME280;6445;52.490;13.378;2022-08-19T08:28:46;52440.09;;;-146.10;63.21
12763;BME280;6445;52.490;13.378;2022-08-19T08:31:12;52444.09;;;-146.10;62.84
12763;BME280;6445;52.490;13.378;2022-08-19T08:33:37;52412.09;;;-146.10;63.51
12763;BME280;6445;52.490;13.378;2022-08-19T08:36:07;52452.09;;;-146.10;64.03
12763;BME280;6445;52.490;13.378;2022-08-19T08:38:33;52472.13;;;-146.10;62.83
12763;BME280;6445;52.490;13.378;2022-08-19T08:41:11;52476.13;;;-146.10;61.81
12763;BME280;6445;52.490;13.378;2022-08-19T08:43:45;52458.09;;;-146.10;61.63
12763;BME280;6445;52.490;13.378;2022-08-19T08:46:35;52478.13;;;-146.10;61.40
12763;BME280;6445;52.490;13.378;2022-08-19T08:49:14;52462.09;;;-146.10;61.71
12763;BME280;6445;52.490;13.378;2022-08-19T08:51:44;52478.13;;;-146.10;61.21
12763;BME280;6445;52.490;13.378;2022-08-19T08:54:14;52502.13;;;-146.10;60.74
12763;BME280;6445;52.490;13.378;2022-08-19T08:56:43;52484.13;;;-146.10;60.51
12763;BME280;6445;52.490;13.378;2022-08-19T08:59:19;52510.13;;;-146.10;60.11
12763;BME280;6445;52.490;13.378;2022-08-19T09:01:45;52528.13;;;-146.10;59.54
12763;BME280;6445;52.490;13.378;2022-08-19T09:04:12;52494.13;;;-146.10;60.28
12763;BME280;6445;52.490;13.378;2022-08-19T09:09:14;52468.09;;;-146.10;60.44
12763;BME280;6445;52.490;13.378;2022-08-19T09:14:36;52550.16;;;-146.10;58.40
12763;BME280;6445;52.490;13.378;2022-08-19T09:17:08;52534.13;;;-146.10;58.85
12763;BME280;6445;52.490;13.378;2022-08-19T09:19:35;52542.13;;;-146.10;58.17
12763;BME280;6445;52.490;13.378;2022-08-19T09:22:01;52540.13;;;-146.10;58.46
12763;BME280;6445;52.490;13.378;2022-08-19T09:24:26;52530.13;;;-146.10;57.94
12763;BME280;6445;52.490;13.378;2022-08-19T09:26:51;52574.16;;;-146.10;56.83
12763;BME280;6445;52.490;13.378;2022-08-19T09:29:17;52608.16;;;-146.10;55.62
12763;BME280;6445;52.490;13.378;2022-08-19T09:31:42;52572.16;;;-146.10;55.82
12763;BME280;6445;52.490;13.378;2022-08-19T09:34:07;52634.19;;;-146.10;55.52
12763;BME280;6445;52.490;13.378;2022-08-19T09:36:33;52602.16;;;-146.10;55.34
12763;BME280;6445;52.490;13.378;2022-08-19T09:39:03;52586.16;;;-146.10;55.76
12763;BME280;6445;52.490;13.378;2022-08-19T09:41:28;52596.16;;;-146.10;55.72
12763;BME280;6445;52.490;13.378;2022-08-19T09:43:55;52556.16;;;-146.10;57.54
12763;BME280;6445;52.490;13.378;2022-08-19T09:46:24;52584.16;;;-146.10;56.33
12763;BME280;6445;52.490;13.378;2022-08-19T09:48:50;52570.16;;;-146.10;56.59
12763;BME280;6445;52.490;13.378;2022-08-19T09:51:19;52628.16;;;-146.10;54.75
12763;BME280;6445;52.490;13.378;2022-08-19T09:53:46;52612.16;;;-146.10;54.53
12763;BME280;6445;52.490;13.378;2022-08-19T09:56:12;52612.16;;;-146.10;54.70
12763;BME280;6445;52.490;13.378;2022-08-19T09:58:39;52584.16;;;-146.10;56.45
12763;BME280;6445;52.490;13.378;2022-08-19T10:01:06;52606.16;;;-146.10;55.49
12763;BME280;6445;52.490;13.378;2022-08-19T10:03:34;52580.16;;;-146.10;54.92
12763;BME280;6445;52.490;13.378;2022-08-19T10:06:02;52628.16;;;-146.10;54.22
12763;BME280;6445;52.490;13.378;2022-08-19T10:08:32;52616.16;;;-146.10;55.08
12763;BME280;6445;52.490;13.378;2022-08-19T10:10:58;52584.16;;;-146.10;55.62
12763;BME280;6445;52.490;13.378;2022-08-19T10:13:27;52594.16;;;-146.10;55.19
12763;BME280;6445;52.490;13.378;2022-08-19T10:15:55;52582.16;;;-146.10;55.63
12763;BME280;6445;52.490;13.378;2022-08-19T10:18:21;52610.16;;;-146.10;55.04
12763;BME280;6445;52.490;13.378;2022-08-19T10:20:48;52616.16;;;-146.10;54.38
12763;BME280;6445;52.490;13.378;2022-08-19T10:23:14;52604.16;;;-146.10;54.35
12763;BME280;6445;52.490;13.378;2022-08-19T10:25:40;52610.16;;;-146.10;54.08
12763;BME280;6445;52.490;13.378;2022-08-19T10:28:05;52628.16;;;-146.10;53.96
12763;BME280;6445;52.490;13.378;2022-08-19T10:30:32;52620.16;;;-146.10;54.40
12763;BME280;6445;52.490;13.378;2022-08-19T10:32:58;52594.16;;;-146.10;55.84
12763;BME280;6445;52.490;13.378;2022-08-19T10:35:23;52570.16;;;-146.10;56.86
12763;BME280;6445;52.490;13.378;2022-08-19T10:37:51;52560.16;;;-146.10;56.62
12763;BME280;6445;52.490;13.378;2022-08-19T10:40:16;52540.13;;;-146.10;57.13
12763;BME280;6445;52.490;13.378;2022-08-19T10:42:42;52512.13;;;-146.10;58.00
12763;BME280;6445;52.490;13.378;2022-08-19T10:45:08;52510.13;;;-146.10;58.26
12763;BME280;6445;52.490;13.378;2022-08-19T10:47:35;52502.13;;;-146.10;58.88
12763;BME280;6445;52.490;13.378;2022-08-19T10:50:00;52464.09;;;-146.10;59.15
12763;BME280;6445;52.490;13.378;2022-08-19T10:52:46;52476.13;;;-146.10;59.04
12763;BME280;6445;52.490;13.378;2022-08-19T10:55:12;52502.13;;;-146.10;59.61
12763;BME280;6445;52.490;13.378;2022-08-19T10:57:55;52462.09;;;-146.10;59.92
12763;BME280;6445;52.490;13.378;2022-08-19T11:00:23;52480.13;;;-146.10;60.32
12763;BME280;6445;52.490;13.378;2022-08-19T11:02:49;52490.13;;;-146.10;60.59
12763;BME280;6445;52.490;13.378;2022-08-19T11:05:14;52480.13;;;-146.10;60.48
12763;BME280;6445;52.490;13.378;2022-08-19T11:07:41;52468.09;;;-146.10;61.65
12763;BME280;6445;52.490;13.378;2022-08-19T11:10:08;52448.09;;;-146.10;61.34
12763;BME280;6445;52.490;13.378;2022-08-19T11:12:33;52456.09;;;-146.10;61.19
12763;BME280;6445;52.490;13.378;2022-08-19T11:15:01;52500.13;;;-146.10;60.45
12763;BME280;6445;52.490;13.378;2022-08-19T11:17:26;52456.09;;;-146.10;60.91
12763;BME280;6445;52.490;13.378;2022-08-19T11:19:51;52416.09;;;-146.10;61.50
12763;BME280;6445;52.490;13.378;2022-08-19T11:22:17;52484.13;;;-146.10;60.85
12763;BME280;6445;52.490;13.378;2022-08-19T11:24:42;52466.09;;;-146.10;60.68
12763;BME280;6445;52.490;13.378;2022-08-19T11:27:08;52448.09;;;-146.10;60.90
12763;BME280;6445;52.490;13.378;2022-08-19T11:29:35;52486.13;;;-146.10;60.43
12763;BME280;6445;52.490;13.378;2022-08-19T11:32:04;52462.09;;;-146.10;60.58
12763;BME280;6445;52.490;13.378;2022-08-19T11:34:30;52460.09;;;-146.10;60.33
12763;BME280;6445;52.490;13.378;2022-08-19T11:36:56;52476.13;;;-146.10;60.50
12763;BME280;6445;52.490;13.378;2022-08-19T11:39:25;52484.13;;;-146.10;59.94
12763;BME280;6445;52.490;13.378;2022-08-19T11:41:51;52478.13;;;-146.10;60.29
12763;BME280;6445;52.490;13.378;2022-08-19T11:44:16;52506.13;;;-146.10;59.93
12763;BME280;6445;52.490;13.378;2022-08-19T11:46:43;52498.13;;;-146.10;59.81
12763;BME280;6445;52.490;13.378;2022-08-19T11:49:12;52542.13;;;-146.10;59.21
12763;BME280;6445;52.490;13.378;2022-08-19T11:51:37;52480.13;;;-146.10;59.17
12763;BME280;6445;52.490;13.378;2022-08-19T11:54:04;52494.13;;;-146.10;59.39
12763;BME280;6445;52.490;13.378;2022-08-19T11:56:30;52502.13;;;-146.10;59.85
12763;BME280;6445;52.490;13.378;2022-08-19T11:58:57;52480.13;;;-146.10;59.29
12763;BME280;6445;52.490;13.378;2022-08-19T12:01:24;52474.13;;;-146.10;59.54
12763;BME280;6445;52.490;13.378;2022-08-19T12:03:51;52476.13;;;-146.10;60.08
12763;BME280;6445;52.490;13.378;2022-08-19T12:06:20;52460.09;;;-146.10;60.41
12763;BME280;6445;52.490;13.378;2022-08-19T12:08:52;52456.09;;;-146.10;61.15
12763;BME280;6445;52.490;13.378;2022-08-19T12:11:18;52458.09;;;-146.10;60.93
12763;BME280;6445;52.490;13.378;2022-08-19T12:13:43;52456.09;;;-146.10;60.90
12763;BME280;6445;52.490;13.378;2022-08-19T12:16:16;52458.09;;;-146.10;59.85
12763;BME280;6445;52.490;13.378;2022-08-19T12:18:43;52462.09;;;-146.10;59.65
12763;BME280;6445;52.490;13.378;2022-08-19T12:21:10;52482.13;;;-146.10;59.63
12763;BME280;6445;52.490;13.378;2022-08-19T12:23:37;52478.13;;;-146.10;59.43
12763;BME280;6445;52.490;13.378;2022-08-19T12:26:03;52476.13;;;-146.10;58.94
12763;BME280;6445;52.490;13.378;2022-08-19T12:28:29;52506.13;;;-146.10;57.68
12763;BME280;6445;52.490;13.378;2022-08-19T12:30:55;52512.13;;;-146.10;57.66
12763;BME280;6445;52.490;13.378;2022-08-19T12:33:21;52506.13;;;-146.10;57.41
12763;BME280;6445;52.490;13.378;2022-08-19T12:35:49;52552.16;;;-146.10;56.54
12763;BME280;6445;52.490;13.378;2022-08-19T12:38:15;52532.13;;;-146.10;56.83
12763;BME280;6445;52.490;13.378;2022-08-19T12:40:41;52524.13;;;-146.10;56.18
12763;BME280;6445;52.490;13.378;2022-08-19T12:43:07;52550.16;;;-146.10;55.48
12763;BME280;6445;52.490;13.378;2022-08-19T12:45:33;52560.16;;;-146.10;55.25
12763;BME280;6445;52.490;13.378;2022-08-19T12:47:59;52608.16;;;-146.10;53.84